sensor_id;sensor_type;location;lat;lon;timestamp;P1;durP1;ratioP1;P2;durP2;ratioP2
71423;SDS011;59240;51.370;-0.486;2023-05-07T00:01:13;6.17;;;2.20;;
71423;SDS011;59240;51.370;-0.486;2023-05-07T00:03:40;7.35;;;2.50;;
71423;SDS011;59240;51.370;-0.486;2023-05-07T00:06:08;7.47;;;2.33;;
71423;SDS011;59240;51.370;-0.486;2023-05-07T00:08:34;8.10;;;2.47;;
71423;SDS011;59240;51.370;-0.486;2023-05-07T00:11:01;8.75;;;2.40;;
71423;SDS011;59240;51.370;-0.486;2023-05-07T00:13:28;7.83;;;2.20;;
71423;SDS011;59240;51.370;-0.486;2023-05-07T00:15:56;7.22;;;2.60;;
71423;SDS011;59240;51.370;-0.486;2023-05-07T00:18:23;8.90;;;2.45;;
71423;SDS011;59240;51.370;-0.486;2023-05-07T00:20:50;7.47;;;2.33;;
71423;SDS011;59240;51.370;-0.486;2023-05-07T00:23:16;7.97;;;2.38;;
71423;SDS011;59240;51.370;-0.486;2023-05-07T00:25:43;8.77;;;2.50;;
71423;SDS011;59240;51.370;-0.486;2023-05-07T00:28:09;12.10;;;2.90;;
71423;SDS011;59240;51.370;-0.486;2023-05-07T00:30:36;7.60;;;2.90;;
71423;SDS011;59240;51.370;-0.486;2023-05-07T00:33:02;9.25;;;3.45;;
71423;SDS011;59240;51.370;-0.486;2023-05-07T00:35:29;9.20;;;3.50;;
71423;SDS011;59240;51.370;-0.486;2023-05-07T00:37:56;9.67;;;4.00;;
71423;SDS011;59240;51.370;-0.486;2023-05-07T00:40:24;11.57;;;4.10;;
71423;SDS011;59240;51.370;-0.486;2023-05-07T00:42:50;11.73;;;4.80;;
71423;SDS011;59240;51.370;-0.486;2023-05-07T00:45:27;14.93;;;6.15;;
71423;SDS011;59240;51.370;-0.486;2023-05-07T00:47:59;15.38;;;6.57;;
71423;SDS011;59240;51.370;-0.486;2023-05-07T00:50:27;15.17;;;6.23;;
71423;SDS011;59240;51.370;-0.486;2023-05-07T00:52:54;15.85;;;6.22;;
71423;SDS011;59240;51.370;-0.486;2023-05-07T00:55:22;14.88;;;5.57;;
71423;SDS011;59240;51.370;-0.486;2023-05-07T00:57:49;17.17;;;6.15;;
71423;SDS011;59240;51.370;-0.486;2023-05-07T01:00:17;17.05;;;7.05;;
71423;SDS011;59240;51.370;-0.486;2023-05-07T01:02:44;19.27;;;7.90;;
71423;SDS011;59240;51.370;-0.486;2023-05-07T01:05:12;18.88;;;8.88;;
71423;SDS011;59240;51.370;-0.486;2023-05-07T01:07:42;18.83;;;7.20;;
71423;SDS011;59240;51.370;-0.486;2023-05-07T01:10:09;22.52;;;8.70;;
71423;SDS011;59240;51.370;-0.486;2023-05-07T01:12:38;22.15;;;8.68;;
71423;SDS011;59240;51.370;-0.486;2023-05-07T01:15:07;22.77;;;8.90;;
71423;SDS011;59240;51.370;-0.486;2023-05-07T01:17:41;23.73;;;9.40;;
71423;SDS011;59240;51.370;-0.486;2023-05-07T01:20:09;22.17;;;8.65;;
71423;SDS011;59240;51.370;-0.486;2023-05-07T01:22:40;25.77;;;9.18;;
71423;SDS011;59240;51.370;-0.486;2023-05-07T01:25:07;25.05;;;9.13;;
71423;SDS011;59240;51.370;-0.486;2023-05-07T01:27:34;23.47;;;8.13;;
71423;SDS011;59240;51.370;-0.486;2023-05-07T01:30:03;21.60;;;8.73;;
71423;SDS011;59240;51.370;-0.486;2023-05-07T01:32:35;21.75;;;7.47;;
71423;SDS011;59240;51.370;-0.486;2023-05-07T01:35:13;19.77;;;8.05;;
71423;SDS011;59240;51.370;-0.486;2023-05-07T01:37:44;22.35;;;8.30;;
71423;SDS011;59240;51.370;-0.486;2023-05-07T01:40:12;25.13;;;8.50;;
71423;SDS011;59240;51.370;-0.486;2023-05-07T01:42:40;20.95;;;8.35;;
71423;SDS011;59240;51.370;-0.486;2023-05-07T01:45:09;23.65;;;7.78;;
71423;SDS011;59240;51.370;-0.486;2023-05-07T01:47:36;23.65;;;7.65;;
71423;SDS011;59240;51.370;-0.486;2023-05-07T01:50:05;23.65;;;7.60;;
71423;SDS011;59240;51.370;-0.486;2023-05-07T01:52:34;21.00;;;7.47;;
71423;SDS011;59240;51.370;-0.486;2023-05-07T01:55:02;19.70;;;7.00;;
71423;SDS011;59240;51.370;-0.486;2023-05-07T01:57:29;21.20;;;7.60;;
71423;SDS011;59240;51.370;-0.486;2023-05-07T01:59:55;19.08;;;6.97;;
71423;SDS011;59240;51.370;-0.486;2023-05-07T02:02:22;21.63;;;6.85;;
71423;SDS011;59240;51.370;-0.486;2023-05-07T02:04:48;17.10;;;6.07;;
71423;SDS011;59240;51.370;-0.486;2023-05-07T02:07:15;19.48;;;6.18;;
71423;SDS011;59240;51.370;-0.486;2023-05-07T02:09:42;19.25;;;6.20;;
71423;SDS011;59240;51.370;-0.486;2023-05-07T02:12:08;18.63;;;6.35;;
71423;SDS011;59240;51.370;-0.486;2023-05-07T02:14:35;18.83;;;6.53;;
71423;SDS011;59240;51.370;-0.486;2023-05-07T02:17:01;19.10;;;6.80;;
71423;SDS011;59240;51.370;-0.486;2023-05-07T02:19:28;19.13;;;6.18;;
71423;SDS011;59240;51.370;-0.486;2023-05-07T02:21:54;20.23;;;5.93;;
71423;SDS011;59240;51.370;-0.486;2023-05-07T02:24:21;17.35;;;6.20;;
71423;SDS011;59240;51.370;-0.486;2023-05-07T02:26:48;15.73;;;5.28;;
71423;SDS011;59240;51.370;-0.486;2023-05-07T02:29:14;15.67;;;5.57;;
71423;SDS011;59240;51.370;-0.486;2023-05-07T02:31:41;15.75;;;5.35;;
71423;SDS011;59240;51.370;-0.486;2023-05-07T02:34:07;16.05;;;5.13;;
71423;SDS011;59240;51.370;-0.486;2023-05-07T02:36:34;15.48;;;5.07;;
71423;SDS011;59240;51.370;-0.486;2023-05-07T02:39:01;15.38;;;4.97;;
71423;SDS011;59240;51.370;-0.486;2023-05-07T02:41:28;15.40;;;5.47;;
71423;SDS011;59240;51.370;-0.486;2023-05-07T02:43:55;12.23;;;4.63;;
71423;SDS011;59240;51.370;-0.486;2023-05-07T02:46:22;14.32;;;4.38;;
71423;SDS011;59240;51.370;-0.486;2023-05-07T02:48:48;15.27;;;4.68;;
71423;SDS011;59240;51.370;-0.486;2023-05-07T02:51:16;15.95;;;4.88;;
71423;SDS011;59240;51.370;-0.486;2023-05-07T02:53:45;13.60;;;4.67;;
71423;SDS011;59240;51.370;-0.486;2023-05-07T02:56:12;11.35;;;4.72;;
71423;SDS011;59240;51.370;-0.486;2023-05-07T02:58:38;13.45;;;4.40;;
71423;SDS011;59240;51.370;-0.486;2023-05-07T03:01:08;13.60;;;4.25;;
71423;SDS011;59240;51.370;-0.486;2023-05-07T03:03:35;13.63;;;4.57;;
71423;SDS011;59240;51.370;-0.486;2023-05-07T03:06:02;11.63;;;4.70;;
71423;SDS011;59240;51.370;-0.486;2023-05-07T03:08:29;13.63;;;4.53;;
71423;SDS011;59240;51.370;-0.486;2023-05-07T03:10:55;12.70;;;4.30;;
71423;SDS011;59240;51.370;-0.486;2023-05-07T03:13:22;11.85;;;4.32;;
71423;SDS011;59240;51.370;-0.486;2023-05-07T03:15:49;12.52;;;4.03;;
71423;SDS011;59240;51.370;-0.486;2023-05-07T03:18:16;13.03;;;4.47;;
71423;SDS011;59240;51.370;-0.486;2023-05-07T03:20:42;11.63;;;4.40;;
71423;SDS011;59240;51.370;-0.486;2023-05-07T03:23:09;12.75;;;4.22;;
71423;SDS011;59240;51.370;-0.486;2023-05-07T03:25:35;10.98;;;3.95;;
71423;SDS011;59240;51.370;-0.486;2023-05-07T03:28:02;11.40;;;4.15;;
71423;SDS011;59240;51.370;-0.486;2023-05-07T03:30:28;11.10;;;3.97;;
71423;SDS011;59240;51.370;-0.486;2023-05-07T03:32:55;12.25;;;4.25;;
71423;SDS011;59240;51.370;-0.486;2023-05-07T03:35:22;11.75;;;3.95;;
71423;SDS011;59240;51.370;-0.486;2023-05-07T03:37:48;10.40;;;3.75;;
71423;SDS011;59240;51.370;-0.486;2023-05-07T03:40:15;11.57;;;3.85;;
71423;SDS011;59240;51.370;-0.486;2023-05-07T03:42:41;12.43;;;3.80;;
71423;SDS011;59240;51.370;-0.486;2023-05-07T03:45:08;12.80;;;3.92;;
71423;SDS011;59240;51.370;-0.486;2023-05-07T03:47:35;10.35;;;3.75;;
71423;SDS011;59240;51.370;-0.486;2023-05-07T03:50:02;11.45;;;4.55;;
71423;SDS011;59240;51.370;-0.486;2023-05-07T03:52:28;11.98;;;4.32;;
71423;SDS011;59240;51.370;-0.486;2023-05-07T03:54:55;10.67;;;3.80;;
71423;SDS011;59240;51.370;-0.486;2023-05-07T03:57:21;14.88;;;4.22;;
71423;SDS011;59240;51.370;-0.486;2023-05-07T03:59:48;11.23;;;4.10;;
71423;SDS011;59240;51.370;-0.486;2023-05-07T04:02:14;12.23;;;4.38;;
71423;SDS011;59240;51.370;-0.486;2023-05-07T04:04:41;13.55;;;4.18;;
71423;SDS011;59240;51.370;-0.486;2023-05-07T04:07:08;14.07;;;4.70;;
71423;SDS011;59240;51.370;-0.486;2023-05-07T04:09:34;14.05;;;4.38;;
71423;SDS011;59240;51.370;-0.486;2023-05-07T04:12:01;13.77;;;4.28;;
71423;SDS011;59240;51.370;-0.486;2023-05-07T04:14:28;13.52;;;4.20;;
71423;SDS011;59240;51.370;-0.486;2023-05-07T04:16:54;11.40;;;4.32;;
71423;SDS011;59240;51.370;-0.486;2023-05-07T04:19:21;14.37;;;4.60;;
71423;SDS011;59240;51.370;-0.486;2023-05-07T04:21:48;12.45;;;4.60;;
71423;SDS011;59240;51.370;-0.486;2023-05-07T04:24:14;14.15;;;4.28;;
71423;SDS011;59240;51.370;-0.486;2023-05-07T04:26:41;15.40;;;4.70;;
71423;SDS011;59240;51.370;-0.486;2023-05-07T04:29:07;13.13;;;4.53;;
71423;SDS011;59240;51.370;-0.486;2023-05-07T04:31:34;16.87;;;4.50;;
71423;SDS011;59240;51.370;-0.486;2023-05-07T04:34:00;17.58;;;5.10;;
71423;SDS011;59240;51.370;-0.486;2023-05-07T04:36:27;15.38;;;5.22;;
71423;SDS011;59240;51.370;-0.486;2023-05-07T04:38:55;15.45;;;4.88;;
71423;SDS011;59240;51.370;-0.486;2023-05-07T04:41:21;13.95;;;4.72;;
71423;SDS011;59240;51.370;-0.486;2023-05-07T04:43:48;17.30;;;5.10;;
71423;SDS011;59240;51.370;-0.486;2023-05-07T04:46:14;13.60;;;5.20;;
71423;SDS011;59240;51.370;-0.486;2023-05-07T04:48:41;14.90;;;5.45;;
71423;SDS011;59240;51.370;-0.486;2023-05-07T04:51:08;15.80;;;4.95;;
71423;SDS011;59240;51.370;-0.486;2023-05-07T04:53:34;14.85;;;5.10;;
71423;SDS011;59240;51.370;-0.486;2023-05-07T04:56:01;15.37;;;5.60;;
71423;SDS011;59240;51.370;-0.486;2023-05-07T04:58:27;17.85;;;6.05;;
71423;SDS011;59240;51.370;-0.486;2023-05-07T05:00:58;16.70;;;5.18;;
71423;SDS011;59240;51.370;-0.486;2023-05-07T05:03:25;17.30;;;5.20;;
71423;SDS011;59240;51.370;-0.486;2023-05-07T05:05:52;17.08;;;5.25;;
71423;SDS011;59240;51.370;-0.486;2023-05-07T05:08:19;26.97;;;8.80;;
71423;SDS011;59240;51.370;-0.486;2023-05-07T05:10:46;18.75;;;6.53;;
71423;SDS011;59240;51.370;-0.486;2023-05-07T05:13:14;19.02;;;5.78;;
71423;SDS011;59240;51.370;-0.486;2023-05-07T05:15:41;15.90;;;5.53;;
71423;SDS011;59240;51.370;-0.486;2023-05-07T05:18:08;16.23;;;4.82;;
71423;SDS011;59240;51.370;-0.486;2023-05-07T05:20:34;18.83;;;5.67;;
71423;SDS011;59240;51.370;-0.486;2023-05-07T05:23:01;18.02;;;5.75;;
71423;SDS011;59240;51.370;-0.486;2023-05-07T05:25:28;15.23;;;5.50;;
71423;SDS011;59240;51.370;-0.486;2023-05-07T05:27:54;17.05;;;5.85;;
71423;SDS011;59240;51.370;-0.486;2023-05-07T05:30:21;15.95;;;5.63;;
71423;SDS011;59240;51.370;-0.486;2023-05-07T05:32:48;16.80;;;4.97;;
71423;SDS011;59240;51.370;-0.486;2023-05-07T05:35:15;20.83;;;5.82;;
71423;SDS011;59240;51.370;-0.486;2023-05-07T05:37:41;16.88;;;5.78;;
71423;SDS011;59240;51.370;-0.486;2023-05-07T05:40:08;16.15;;;5.80;;
71423;SDS011;59240;51.370;-0.486;2023-05-07T05:42:35;15.60;;;6.05;;
71423;SDS011;59240;51.370;-0.486;2023-05-07T05:45:02;14.70;;;4.87;;
71423;SDS011;59240;51.370;-0.486;2023-05-07T05:47:29;17.33;;;5.80;;
71423;SDS011;59240;51.370;-0.486;2023-05-07T05:49:55;20.45;;;6.30;;
71423;SDS011;59240;51.370;-0.486;2023-05-07T05:52:22;16.58;;;5.50;;
71423;SDS011;59240;51.370;-0.486;2023-05-07T05:54:49;15.32;;;5.18;;
71423;SDS011;59240;51.370;-0.486;2023-05-07T05:57:16;17.07;;;5.33;;
71423;SDS011;59240;51.370;-0.486;2023-05-07T05:59:43;14.88;;;5.50;;
71423;SDS011;59240;51.370;-0.486;2023-05-07T06:02:10;14.15;;;5.68;;
71423;SDS011;59240;51.370;-0.486;2023-05-07T06:04:36;16.90;;;5.97;;
71423;SDS011;59240;51.370;-0.486;2023-05-07T06:07:03;17.08;;;5.57;;
71423;SDS011;59240;51.370;-0.486;2023-05-07T06:09:29;13.40;;;4.93;;
71423;SDS011;59240;51.370;-0.486;2023-05-07T06:11:56;16.88;;;5.78;;
71423;SDS011;59240;51.370;-0.486;2023-05-07T06:14:25;15.15;;;5.22;;
71423;SDS011;59240;51.370;-0.486;2023-05-07T06:16:52;14.13;;;4.97;;
71423;SDS011;59240;51.370;-0.486;2023-05-07T06:19:19;16.33;;;5.43;;
71423;SDS011;59240;51.370;-0.486;2023-05-07T06:21:49;13.27;;;5.23;;
71423;SDS011;59240;51.370;-0.486;2023-05-07T06:24:16;14.85;;;5.60;;
71423;SDS011;59240;51.370;-0.486;2023-05-07T06:26:43;13.38;;;4.97;;
71423;SDS011;59240;51.370;-0.486;2023-05-07T06:29:09;14.82;;;5.07;;
71423;SDS011;59240;51.370;-0.486;2023-05-07T06:31:36;15.93;;;5.88;;
71423;SDS011;59240;51.370;-0.486;2023-05-07T06:34:02;14.57;;;5.23;;
71423;SDS011;59240;51.370;-0.486;2023-05-07T06:36:29;14.20;;;5.40;;
71423;SDS011;59240;51.370;-0.486;2023-05-07T06:38:55;13.20;;;4.97;;
71423;SDS011;59240;51.370;-0.486;2023-05-07T06:41:22;13.02;;;4.93;;
71423;SDS011;59240;51.370;-0.486;2023-05-07T06:43:48;13.52;;;5.07;;
71423;SDS011;59240;51.370;-0.486;2023-05-07T06:46:15;13.60;;;5.00;;
71423;SDS011;59240;51.370;-0.486;2023-05-07T06:48:42;13.00;;;4.82;;
71423;SDS011;59240;51.370;-0.486;2023-05-07T06:51:08;11.48;;;4.80;;
71423;SDS011;59240;51.370;-0.486;2023-05-07T06:53:35;14.70;;;4.88;;
71423;SDS011;59240;51.370;-0.486;2023-05-07T06:56:02;16.25;;;5.57;;
71423;SDS011;59240;51.370;-0.486;2023-05-07T06:58:28;16.17;;;5.10;;
71423;SDS011;59240;51.370;-0.486;2023-05-07T07:00:55;15.55;;;5.03;;
71423;SDS011;59240;51.370;-0.486;2023-05-07T07:03:21;17.67;;;5.32;;
71423;SDS011;59240;51.370;-0.486;2023-05-07T07:05:51;12.00;;;5.40;;
71423;SDS011;59240;51.370;-0.486;2023-05-07T07:08:18;14.88;;;4.72;;
71423;SDS011;59240;51.370;-0.486;2023-05-07T07:10:47;13.50;;;4.97;;
71423;SDS011;59240;51.370;-0.486;2023-05-07T07:13:14;14.45;;;5.38;;
71423;SDS011;59240;51.370;-0.486;2023-05-07T07:15:40;13.32;;;5.43;;
71423;SDS011;59240;51.370;-0.486;2023-05-07T07:18:07;14.52;;;4.88;;
71423;SDS011;59240;51.370;-0.486;2023-05-07T07:20:34;13.90;;;5.32;;
71423;SDS011;59240;51.370;-0.486;2023-05-07T07:23:00;15.10;;;5.60;;
71423;SDS011;59240;51.370;-0.486;2023-05-07T07:25:27;12.63;;;4.60;;
71423;SDS011;59240;51.370;-0.486;2023-05-07T07:27:53;11.45;;;4.50;;
71423;SDS011;59240;51.370;-0.486;2023-05-07T07:30:20;14.93;;;4.95;;
71423;SDS011;59240;51.370;-0.486;2023-05-07T07:32:46;11.80;;;4.47;;
71423;SDS011;59240;51.370;-0.486;2023-05-07T07:35:13;11.00;;;4.43;;
71423;SDS011;59240;51.370;-0.486;2023-05-07T07:37:39;11.73;;;4.80;;
71423;SDS011;59240;51.370;-0.486;2023-05-07T07:40:06;11.10;;;4.55;;
71423;SDS011;59240;51.370;-0.486;2023-05-07T07:42:33;11.05;;;4.38;;
71423;SDS011;59240;51.370;-0.486;2023-05-07T07:45:00;14.00;;;5.03;;
71423;SDS011;59240;51.370;-0.486;2023-05-07T07:47:26;12.37;;;4.07;;
71423;SDS011;59240;51.370;-0.486;2023-05-07T07:49:53;10.32;;;3.88;;
71423;SDS011;59240;51.370;-0.486;2023-05-07T07:52:19;10.93;;;4.03;;
71423;SDS011;59240;51.370;-0.486;2023-05-07T07:54:46;10.60;;;4.60;;
71423;SDS011;59240;51.370;-0.486;2023-05-07T07:57:12;10.48;;;4.18;;
71423;SDS011;59240;51.370;-0.486;2023-05-07T07:59:39;8.70;;;3.47;;
71423;SDS011;59240;51.370;-0.486;2023-05-07T08:02:06;10.55;;;3.75;;
71423;SDS011;59240;51.370;-0.486;2023-05-07T08:04:32;10.20;;;3.72;;
71423;SDS011;59240;51.370;-0.486;2023-05-07T08:06:59;11.13;;;4.20;;
71423;SDS011;59240;51.370;-0.486;2023-05-07T08:09:26;9.82;;;3.83;;
71423;SDS011;59240;51.370;-0.486;2023-05-07T08:11:53;8.87;;;3.40;;
71423;SDS011;59240;51.370;-0.486;2023-05-07T08:14:19;10.90;;;3.67;;
71423;SDS011;59240;51.370;-0.486;2023-05-07T08:16:47;10.13;;;4.80;;
71423;SDS011;59240;51.370;-0.486;2023-05-07T08:19:14;10.13;;;3.80;;
71423;SDS011;59240;51.370;-0.486;2023-05-07T08:21:40;10.07;;;3.80;;
71423;SDS011;59240;51.370;-0.486;2023-05-07T08:24:07;10.13;;;3.63;;
71423;SDS011;59240;51.370;-0.486;2023-05-07T08:26:33;8.35;;;3.63;;
71423;SDS011;59240;51.370;-0.486;2023-05-07T08:29:02;11.27;;;4.13;;
71423;SDS011;59240;51.370;-0.486;2023-05-07T08:31:28;9.63;;;3.28;;
71423;SDS011;59240;51.370;-0.486;2023-05-07T08:33:55;8.63;;;3.10;;
71423;SDS011;59240;51.370;-0.486;2023-05-07T08:36:22;8.60;;;3.47;;
71423;SDS011;59240;51.370;-0.486;2023-05-07T08:38:48;10.10;;;3.97;;
71423;SDS011;59240;51.370;-0.486;2023-05-07T08:41:15;9.57;;;3.47;;
71423;SDS011;59240;51.370;-0.486;2023-05-07T08:43:42;8.85;;;3.22;;
71423;SDS011;59240;51.370;-0.486;2023-05-07T08:46:17;9.23;;;3.10;;
71423;SDS011;59240;51.370;-0.486;2023-05-07T08:48:48;10.07;;;3.20;;
71423;SDS011;59240;51.370;-0.486;2023-05-07T08:51:16;8.23;;;3.33;;
71423;SDS011;59240;51.370;-0.486;2023-05-07T08:53:44;8.35;;;3.20;;
71423;SDS011;59240;51.370;-0.486;2023-05-07T08:56:12;7.85;;;3.10;;
71423;SDS011;59240;51.370;-0.486;2023-05-07T08:58:39;7.70;;;3.20;;
71423;SDS011;59240;51.370;-0.486;2023-05-07T09:01:09;7.43;;;2.70;;
71423;SDS011;59240;51.370;-0.486;2023-05-07T09:03:39;9.07;;;2.75;;
71423;SDS011;59240;51.370;-0.486;2023-05-07T09:06:06;8.68;;;3.13;;
71423;SDS011;59240;51.370;-0.486;2023-05-07T09:08:33;6.75;;;2.38;;
71423;SDS011;59240;51.370;-0.486;2023-05-07T09:11:00;6.63;;;2.53;;
71423;SDS011;59240;51.370;-0.486;2023-05-07T09:13:28;7.23;;;3.20;;
71423;SDS011;59240;51.370;-0.486;2023-05-07T09:15:55;7.55;;;2.53;;
71423;SDS011;59240;51.370;-0.486;2023-05-07T09:18:25;7.28;;;2.70;;
71423;SDS011;59240;51.370;-0.486;2023-05-07T09:20:52;7.25;;;2.50;;
71423;SDS011;59240;51.370;-0.486;2023-05-07T09:23:18;7.57;;;2.70;;
71423;SDS011;59240;51.370;-0.486;2023-05-07T09:25:46;7.00;;;2.60;;
71423;SDS011;59240;51.370;-0.486;2023-05-07T09:28:13;7.65;;;3.08;;
71423;SDS011;59240;51.370;-0.486;2023-05-07T09:30:40;6.40;;;2.13;;
71423;SDS011;59240;51.370;-0.486;2023-05-07T09:33:06;7.32;;;2.58;;
71423;SDS011;59240;51.370;-0.486;2023-05-07T09:35:33;6.50;;;2.50;;
71423;SDS011;59240;51.370;-0.486;2023-05-07T09:38:00;6.90;;;2.60;;
71423;SDS011;59240;51.370;-0.486;2023-05-07T09:40:30;7.10;;;2.58;;
71423;SDS011;59240;51.370;-0.486;2023-05-07T09:43:01;6.85;;;2.45;;
71423;SDS011;59240;51.370;-0.486;2023-05-07T09:45:35;7.22;;;2.58;;
71423;SDS011;59240;51.370;-0.486;2023-05-07T09:48:04;7.63;;;2.50;;
71423;SDS011;59240;51.370;-0.486;2023-05-07T09:50:35;6.87;;;2.43;;
71423;SDS011;59240;51.370;-0.486;2023-05-07T09:53:07;7.05;;;2.60;;
71423;SDS011;59240;51.370;-0.486;2023-05-07T09:55:36;7.13;;;2.35;;
71423;SDS011;59240;51.370;-0.486;2023-05-07T09:58:03;7.07;;;2.70;;
71423;SDS011;59240;51.370;-0.486;2023-05-07T10:00:31;7.22;;;2.70;;
71423;SDS011;59240;51.370;-0.486;2023-05-07T10:02:59;7.67;;;2.90;;
71423;SDS011;59240;51.370;-0.486;2023-05-07T10:05:27;7.40;;;2.53;;
71423;SDS011;59240;51.370;-0.486;2023-05-07T10:07:54;7.50;;;2.70;;
71423;SDS011;59240;51.370;-0.486;2023-05-07T10:10:23;7.47;;;2.75;;
71423;SDS011;59240;51.370;-0.486;2023-05-07T10:12:50;7.13;;;2.65;;
71423;SDS011;59240;51.370;-0.486;2023-05-07T10:15:17;8.30;;;3.13;;
71423;SDS011;59240;51.370;-0.486;2023-05-07T10:17:44;6.65;;;2.67;;
71423;SDS011;59240;51.370;-0.486;2023-05-07T10:20:11;7.50;;;2.90;;
71423;SDS011;59240;51.370;-0.486;2023-05-07T10:22:41;6.63;;;2.63;;
71423;SDS011;59240;51.370;-0.486;2023-05-07T10:25:28;7.68;;;2.67;;
71423;SDS011;59240;51.370;-0.486;2023-05-07T10:27:57;6.53;;;2.20;;
71423;SDS011;59240;51.370;-0.486;2023-05-07T10:30:32;7.70;;;2.47;;
71423;SDS011;59240;51.370;-0.486;2023-05-07T10:33:21;7.07;;;2.60;;
71423;SDS011;59240;51.370;-0.486;2023-05-07T10:35:49;5.38;;;2.20;;
71423;SDS011;59240;51.370;-0.486;2023-05-07T10:38:16;8.38;;;2.50;;
71423;SDS011;59240;51.370;-0.486;2023-05-07T10:40:43;6.47;;;2.50;;
71423;SDS011;59240;51.370;-0.486;2023-05-07T10:43:13;7.88;;;2.50;;
71423;SDS011;59240;51.370;-0.486;2023-05-07T10:45:39;6.60;;;2.72;;
71423;SDS011;59240;51.370;-0.486;2023-05-07T10:48:15;7.18;;;2.75;;
71423;SDS011;59240;51.370;-0.486;2023-05-07T10:50:46;6.80;;;2.28;;
71423;SDS011;59240;51.370;-0.486;2023-05-07T10:55:49;5.63;;;2.10;;
71423;SDS011;59240;51.370;-0.486;2023-05-07T10:58:26;7.22;;;2.60;;
71423;SDS011;59240;51.370;-0.486;2023-05-07T11:00:59;7.88;;;2.47;;
71423;SDS011;59240;51.370;-0.486;2023-05-07T11:03:28;6.57;;;2.42;;
71423;SDS011;59240;51.370;-0.486;2023-05-07T11:06:08;6.97;;;2.70;;
71423;SDS011;59240;51.370;-0.486;2023-05-07T11:08:53;5.90;;;2.25;;
71423;SDS011;59240;51.370;-0.486;2023-05-07T11:14:42;5.78;;;2.22;;
71423;SDS011;59240;51.370;-0.486;2023-05-07T11:17:09;6.55;;;2.70;;
71423;SDS011;59240;51.370;-0.486;2023-05-07T11:19:52;6.07;;;2.60;;
71423;SDS011;59240;51.370;-0.486;2023-05-07T11:24:59;7.40;;;3.05;;
71423;SDS011;59240;51.370;-0.486;2023-05-07T11:27:26;6.00;;;2.35;;
71423;SDS011;59240;51.370;-0.486;2023-05-07T11:29:53;7.15;;;2.67;;
71423;SDS011;59240;51.370;-0.486;2023-05-07T11:32:31;8.20;;;2.90;;
71423;SDS011;59240;51.370;-0.486;2023-05-07T11:35:00;7.22;;;2.90;;
71423;SDS011;59240;51.370;-0.486;2023-05-07T11:37:59;6.75;;;2.38;;
71423;SDS011;59240;51.370;-0.486;2023-05-07T11:40:26;7.38;;;2.97;;
71423;SDS011;59240;51.370;-0.486;2023-05-07T11:43:12;6.85;;;2.65;;
71423;SDS011;59240;51.370;-0.486;2023-05-07T11:45:39;9.73;;;3.30;;
71423;SDS011;59240;51.370;-0.486;2023-05-07T11:48:05;7.55;;;3.10;;
71423;SDS011;59240;51.370;-0.486;2023-05-07T11:50:32;6.53;;;2.67;;
71423;SDS011;59240;51.370;-0.486;2023-05-07T11:52:58;7.40;;;2.63;;
71423;SDS011;59240;51.370;-0.486;2023-05-07T11:55:25;6.65;;;2.75;;
71423;SDS011;59240;51.370;-0.486;2023-05-07T11:57:52;8.37;;;2.73;;
71423;SDS011;59240;51.370;-0.486;2023-05-07T12:00:18;6.45;;;2.47;;
71423;SDS011;59240;51.370;-0.486;2023-05-07T12:02:45;6.25;;;2.53;;
71423;SDS011;59240;51.370;-0.486;2023-05-07T12:05:12;6.40;;;2.38;;
71423;SDS011;59240;51.370;-0.486;2023-05-07T12:07:39;6.65;;;2.20;;
71423;SDS011;59240;51.370;-0.486;2023-05-07T12:10:08;6.20;;;2.50;;
71423;SDS011;59240;51.370;-0.486;2023-05-07T12:12:40;7.15;;;2.70;;
71423;SDS011;59240;51.370;-0.486;2023-05-07T12:15:09;6.65;;;2.47;;
71423;SDS011;59240;51.370;-0.486;2023-05-07T12:17:36;6.90;;;2.67;;
71423;SDS011;59240;51.370;-0.486;2023-05-07T12:20:03;6.53;;;2.30;;
71423;SDS011;59240;51.370;-0.486;2023-05-07T12:22:31;7.10;;;2.20;;
71423;SDS011;59240;51.370;-0.486;2023-05-07T12:24:58;8.35;;;2.28;;
71423;SDS011;59240;51.370;-0.486;2023-05-07T12:27:39;5.95;;;2.20;;
71423;SDS011;59240;51.370;-0.486;2023-05-07T12:30:08;6.65;;;2.45;;
71423;SDS011;59240;51.370;-0.486;2023-05-07T12:32:36;5.90;;;2.20;;
71423;SDS011;59240;51.370;-0.486;2023-05-07T12:35:03;7.87;;;2.70;;
71423;SDS011;59240;51.370;-0.486;2023-05-07T12:37:32;6.03;;;2.40;;
71423;SDS011;59240;51.370;-0.486;2023-05-07T12:40:08;6.60;;;2.10;;
71423;SDS011;59240;51.370;-0.486;2023-05-07T12:42:36;5.72;;;2.00;;
71423;SDS011;59240;51.370;-0.486;2023-05-07T12:45:24;5.25;;;2.00;;
71423;SDS011;59240;51.370;-0.486;2023-05-07T12:47:55;8.47;;;1.90;;
71423;SDS011;59240;51.370;-0.486;2023-05-07T12:50:22;5.28;;;1.50;;
71423;SDS011;59240;51.370;-0.486;2023-05-07T12:52:49;4.50;;;1.30;;
71423;SDS011;59240;51.370;-0.486;2023-05-07T12:55:16;4.43;;;1.10;;
71423;SDS011;59240;51.370;-0.486;2023-05-07T12:57:50;5.30;;;1.65;;
71423;SDS011;59240;51.370;-0.486;2023-05-07T13:00:34;5.00;;;1.60;;
71423;SDS011;59240;51.370;-0.486;2023-05-07T13:03:02;6.68;;;1.60;;
71423;SDS011;59240;51.370;-0.486;2023-05-07T13:05:29;6.95;;;1.63;;
71423;SDS011;59240;51.370;-0.486;2023-05-07T13:07:56;5.30;;;1.50;;
71423;SDS011;59240;51.370;-0.486;2023-05-07T13:10:23;4.47;;;1.50;;
71423;SDS011;59240;51.370;-0.486;2023-05-07T13:12:50;4.93;;;1.60;;
71423;SDS011;59240;51.370;-0.486;2023-05-07T13:15:20;9.13;;;1.80;;
71423;SDS011;59240;51.370;-0.486;2023-05-07T13:17:48;4.35;;;1.40;;
71423;SDS011;59240;51.370;-0.486;2023-05-07T13:20:16;5.00;;;1.20;;
71423;SDS011;59240;51.370;-0.486;2023-05-07T13:22:43;4.57;;;1.40;;
71423;SDS011;59240;51.370;-0.486;2023-05-07T13:25:09;4.10;;;1.20;;
71423;SDS011;59240;51.370;-0.486;2023-05-07T13:27:36;6.95;;;1.27;;
71423;SDS011;59240;51.370;-0.486;2023-05-07T13:30:05;4.80;;;1.15;;
71423;SDS011;59240;51.370;-0.486;2023-05-07T13:32:32;4.95;;;0.98;;
71423;SDS011;59240;51.370;-0.486;2023-05-07T13:34:59;5.00;;;1.20;;
71423;SDS011;59240;51.370;-0.486;2023-05-07T13:37:26;4.20;;;0.93;;
71423;SDS011;59240;51.370;-0.486;2023-05-07T13:39:53;4.05;;;1.00;;
71423;SDS011;59240;51.370;-0.486;2023-05-07T13:42:19;5.10;;;1.33;;
71423;SDS011;59240;51.370;-0.486;2023-05-07T13:44:46;4.78;;;1.30;;
71423;SDS011;59240;51.370;-0.486;2023-05-07T13:47:12;5.45;;;1.52;;
71423;SDS011;59240;51.370;-0.486;2023-05-07T13:49:39;5.30;;;1.30;;
71423;SDS011;59240;51.370;-0.486;2023-05-07T13:52:06;4.75;;;1.08;;
71423;SDS011;59240;51.370;-0.486;2023-05-07T13:54:32;4.25;;;0.98;;
71423;SDS011;59240;51.370;-0.486;2023-05-07T13:56:59;4.82;;;1.00;;
71423;SDS011;59240;51.370;-0.486;2023-05-07T13:59:28;3.55;;;0.90;;
71423;SDS011;59240;51.370;-0.486;2023-05-07T14:01:54;4.63;;;1.00;;
71423;SDS011;59240;51.370;-0.486;2023-05-07T14:04:23;4.10;;;0.85;;
71423;SDS011;59240;51.370;-0.486;2023-05-07T14:06:50;3.85;;;0.85;;
71423;SDS011;59240;51.370;-0.486;2023-05-07T14:09:17;3.97;;;1.20;;
71423;SDS011;59240;51.370;-0.486;2023-05-07T14:11:44;4.38;;;1.00;;
71423;SDS011;59240;51.370;-0.486;2023-05-07T14:14:13;3.50;;;0.87;;
71423;SDS011;59240;51.370;-0.486;2023-05-07T14:16:42;3.63;;;0.90;;
71423;SDS011;59240;51.370;-0.486;2023-05-07T14:19:14;3.85;;;1.02;;
71423;SDS011;59240;51.370;-0.486;2023-05-07T14:21:41;5.82;;;1.10;;
71423;SDS011;59240;51.370;-0.486;2023-05-07T14:24:08;3.08;;;0.80;;
71423;SDS011;59240;51.370;-0.486;2023-05-07T14:26:37;5.53;;;1.10;;
71423;SDS011;59240;51.370;-0.486;2023-05-07T14:29:03;4.03;;;0.90;;
71423;SDS011;59240;51.370;-0.486;2023-05-07T14:31:30;5.25;;;1.40;;
71423;SDS011;59240;51.370;-0.486;2023-05-07T14:33:57;9.82;;;1.48;;
71423;SDS011;59240;51.370;-0.486;2023-05-07T14:36:24;3.97;;;1.13;;
71423;SDS011;59240;51.370;-0.486;2023-05-07T14:38:52;4.17;;;1.10;;
71423;SDS011;59240;51.370;-0.486;2023-05-07T14:41:25;3.90;;;1.17;;